Aérodrome :
LOGIN :

S'inscrire | Disclaimer

   EN    FR    IT 

 










Légende :    VFR   VFR Marginal   IFR   IFR Intensif   IFR Très Intensif
Visi : 
Plafond : 
>= 8 km
>= 3000ft
5 à 8 km
1000 à 3000 ft
1500m à 5 km
500 à 1000 ft
800 à 1500m
200 à 500 ft
< 800m
< 200 ft
Symboles :   Orages  Brouillard  Fortes neiges  Fortes précipitations  Vent > 20 kt
SIGMETs :   Divers  Orages  Givrage  Turbulence  Onde Orograph.  Cendres Volcan.







- Altitude de l'aérodrome : 598 ft
- Code IATA : BQH
- Voir les cartes d'approche


EGKB - Biggin Hill

DERNIER METAR :
  • 232150Z 22015KT 9999 SCT007 10/09 Q1015

METARs EXPIRÉS :
  • 232120Z 22014KT 190V250 9999 SCT007 11/10 Q1015
  • 232050Z 22014KT 9999 SCT007 11/10 Q1014
  • 232020Z 22012KT 200V260 9999 SCT008 11/10 Q1015
  • 231950Z 23012KT 9999 BKN006 11/11 Q1014
  • 231920Z 23013KT 9999 -DZ BKN006 11/11 Q1014
  • 231850Z 23013G23KT 200V260 9999 -DZ BKN005 11/11 Q1014

TAF AMD TAF EGKB
Valide du 23 à 21h jusqu'au 23 à 23h UTC


232100Z 2321/2323 21014KT 9999 SCT007
TEMPO 2321/2323 3000 DZ BR BKN004
Pas de NOTAMs connus pour ce terrain.
1 SIGMET publié pour la FIR London (EGTT) :
 
Onde orographique forte
EGTT SIGMET 02 VALID 231900/232300 EGRR
EGTT LONDON FIR SEV MTW FCST WI N5443 E00205 - N5356 W00137 - N5500 W00216 - N5500 W00100 - N5500 E00153 - N5443 E00205 SFC/FL150 STNR WKN=



MET'MAP, la Météo Aéronautique d'un coup d'oeil ! - Copyright ORBIFLY Décembre 2007 - Disclaimer

ORBIFLY MET'MAP TEAM :

Programmation & Développement : Alexandra Zaïnal
Conception & Développement : Baudouin d'Aumeries
Co-Programmation & Développement : Marc-Olivier Méhu
Soutien technique & logistique : Manuel Goepfert

Contact : metmap@orbifly.com




SOURCES & CREDITS :

   NOAA